KEEN/EEN METAR and TAF weather

Enter ICAO airport designator
Station Type Date Time Source
KEEN METAR 2019/08/24 19:56 UTC NOAA

KEEN 241956Z AUTO 36010KT 9SM BKN055 BKN070 23/12 A3019 RMK AO2 SLP227 T02330122 $


Station Type Date Time Source
KEEN Decoded METAR 2019/08/24 19:56 UTC NOAA

Station name not available
Aug 24, 2019 - 03:56 PM EDT / 2019.08.24 1956 UTC
Wind: from the N (360 degrees) at 12 MPH (10 KT):0
Visibility: 9 mile(s):0
Sky conditions: mostly cloudy
Temperature: 73.9 F (23.3 C)
Dew Point: 54.0 F (12.2 C)
Relative Humidity: 49%
Pressure (altimeter): 30.19 in. Hg (1022 hPa)
ob: KEEN 241956Z AUTO 36010KT 9SM BKN055 BKN070 23/12 A3019 RMK AO2 SLP227 T02330122
cycle: 20

Station Type Date Time Source
KEEN TAF UTC NOAA

Error!

Example: see airport list